sensor_id;sensor_type;location;lat;lon;timestamp;P1;durP1;ratioP1;P2;durP2;ratioP2
57263;SDS011;43113;53.124;6.092;2022-10-23T00:01:19;4.47;;;3.10;;
57263;SDS011;43113;53.124;6.092;2022-10-23T00:03:46;5.68;;;3.10;;
57263;SDS011;43113;53.124;6.092;2022-10-23T00:06:13;6.22;;;2.55;;
57263;SDS011;43113;53.124;6.092;2022-10-23T00:08:39;5.22;;;2.85;;
57263;SDS011;43113;53.124;6.092;2022-10-23T00:11:07;5.25;;;3.13;;
57263;SDS011;43113;53.124;6.092;2022-10-23T00:13:33;6.38;;;2.85;;
57263;SDS011;43113;53.124;6.092;2022-10-23T00:15:59;8.05;;;2.95;;
57263;SDS011;43113;53.124;6.092;2022-10-23T00:18:25;5.60;;;2.70;;
57263;SDS011;43113;53.124;6.092;2022-10-23T00:20:51;8.02;;;3.15;;
57263;SDS011;43113;53.124;6.092;2022-10-23T00:23:17;5.00;;;3.00;;
57263;SDS011;43113;53.124;6.092;2022-10-23T00:25:43;8.00;;;2.92;;
57263;SDS011;43113;53.124;6.092;2022-10-23T00:28:09;4.65;;;2.45;;
57263;SDS011;43113;53.124;6.092;2022-10-23T00:30:35;6.82;;;3.38;;
57263;SDS011;43113;53.124;6.092;2022-10-23T00:33:02;4.25;;;2.35;;
57263;SDS011;43113;53.124;6.092;2022-10-23T00:35:28;4.32;;;2.67;;
57263;SDS011;43113;53.124;6.092;2022-10-23T00:37:54;4.95;;;2.60;;
57263;SDS011;43113;53.124;6.092;2022-10-23T00:40:20;6.70;;;3.38;;
57263;SDS011;43113;53.124;6.092;2022-10-23T00:42:46;6.57;;;2.85;;
57263;SDS011;43113;53.124;6.092;2022-10-23T00:47:38;7.07;;;2.78;;
57263;SDS011;43113;53.124;6.092;2022-10-23T00:50:04;4.90;;;2.75;;
57263;SDS011;43113;53.124;6.092;2022-10-23T00:52:31;11.07;;;3.40;;
57263;SDS011;43113;53.124;6.092;2022-10-23T00:54:58;5.03;;;2.80;;
57263;SDS011;43113;53.124;6.092;2022-10-23T00:57:24;7.60;;;3.17;;
57263;SDS011;43113;53.124;6.092;2022-10-23T00:59:50;5.00;;;2.90;;
57263;SDS011;43113;53.124;6.092;2022-10-23T01:02:16;7.03;;;3.00;;
57263;SDS011;43113;53.124;6.092;2022-10-23T01:04:42;9.38;;;4.10;;
57263;SDS011;43113;53.124;6.092;2022-10-23T01:07:14;8.27;;;3.80;;
57263;SDS011;43113;53.124;6.092;2022-10-23T01:09:57;6.97;;;3.60;;
57263;SDS011;43113;53.124;6.092;2022-10-23T01:17:28;10.45;;;4.68;;
57263;SDS011;43113;53.124;6.092;2022-10-23T01:22:27;10.18;;;3.63;;
57263;SDS011;43113;53.124;6.092;2022-10-23T01:27:39;6.90;;;4.30;;
57263;SDS011;43113;53.124;6.092;2022-10-23T01:30:11;8.38;;;4.72;;
57263;SDS011;43113;53.124;6.092;2022-10-23T01:32:48;9.93;;;4.90;;
57263;SDS011;43113;53.124;6.092;2022-10-23T01:35:18;8.88;;;4.93;;
57263;SDS011;43113;53.124;6.092;2022-10-23T01:37:46;11.70;;;4.82;;
57263;SDS011;43113;53.124;6.092;2022-10-23T01:40:22;10.50;;;4.30;;
57263;SDS011;43113;53.124;6.092;2022-10-23T01:42:51;9.73;;;5.20;;
57263;SDS011;43113;53.124;6.092;2022-10-23T01:45:20;12.35;;;4.88;;
57263;SDS011;43113;53.124;6.092;2022-10-23T01:47:48;7.45;;;4.03;;
57263;SDS011;43113;53.124;6.092;2022-10-23T01:50:15;8.85;;;4.30;;
57263;SDS011;43113;53.124;6.092;2022-10-23T01:52:42;7.43;;;4.10;;
57263;SDS011;43113;53.124;6.092;2022-10-23T01:55:09;10.05;;;4.30;;
57263;SDS011;43113;53.124;6.092;2022-10-23T01:57:35;6.78;;;3.38;;
57263;SDS011;43113;53.124;6.092;2022-10-23T02:00:06;7.75;;;4.03;;
57263;SDS011;43113;53.124;6.092;2022-10-23T02:02:33;8.75;;;4.60;;
57263;SDS011;43113;53.124;6.092;2022-10-23T02:05:02;13.27;;;4.18;;
57263;SDS011;43113;53.124;6.092;2022-10-23T02:07:31;8.98;;;4.65;;
57263;SDS011;43113;53.124;6.092;2022-10-23T02:09:57;8.88;;;3.65;;
57263;SDS011;43113;53.124;6.092;2022-10-23T02:15:04;6.70;;;4.40;;
57263;SDS011;43113;53.124;6.092;2022-10-23T02:22:45;6.38;;;3.88;;
57263;SDS011;43113;53.124;6.092;2022-10-23T02:25:12;5.45;;;3.42;;
57263;SDS011;43113;53.124;6.092;2022-10-23T02:27:47;6.53;;;3.85;;
57263;SDS011;43113;53.124;6.092;2022-10-23T02:30:14;7.13;;;4.15;;
57263;SDS011;43113;53.124;6.092;2022-10-23T02:32:43;8.27;;;3.75;;
57263;SDS011;43113;53.124;6.092;2022-10-23T02:35:09;9.98;;;4.10;;
57263;SDS011;43113;53.124;6.092;2022-10-23T02:37:36;8.88;;;5.03;;
57263;SDS011;43113;53.124;6.092;2022-10-23T02:40:02;8.88;;;4.13;;
57263;SDS011;43113;53.124;6.092;2022-10-23T02:42:30;12.05;;;4.60;;
57263;SDS011;43113;53.124;6.092;2022-10-23T02:45:04;10.43;;;5.07;;
57263;SDS011;43113;53.124;6.092;2022-10-23T02:53:19;8.07;;;4.13;;
57263;SDS011;43113;53.124;6.092;2022-10-23T02:56:02;10.73;;;3.95;;
57263;SDS011;43113;53.124;6.092;2022-10-23T03:01:21;8.73;;;3.83;;
57263;SDS011;43113;53.124;6.092;2022-10-23T03:03:51;9.93;;;4.55;;
57263;SDS011;43113;53.124;6.092;2022-10-23T03:06:18;8.77;;;4.20;;
57263;SDS011;43113;53.124;6.092;2022-10-23T03:08:49;9.88;;;4.10;;
57263;SDS011;43113;53.124;6.092;2022-10-23T03:11:16;9.40;;;4.68;;
57263;SDS011;43113;53.124;6.092;2022-10-23T03:13:45;12.85;;;4.68;;
57263;SDS011;43113;53.124;6.092;2022-10-23T03:16:11;7.15;;;3.88;;
57263;SDS011;43113;53.124;6.092;2022-10-23T03:18:37;8.85;;;4.90;;
57263;SDS011;43113;53.124;6.092;2022-10-23T03:21:03;8.88;;;4.95;;
57263;SDS011;43113;53.124;6.092;2022-10-23T03:23:29;7.30;;;4.50;;
57263;SDS011;43113;53.124;6.092;2022-10-23T03:25:55;9.23;;;5.28;;
57263;SDS011;43113;53.124;6.092;2022-10-23T03:28:21;9.73;;;4.35;;
57263;SDS011;43113;53.124;6.092;2022-10-23T03:30:47;10.90;;;4.32;;
57263;SDS011;43113;53.124;6.092;2022-10-23T03:33:14;6.10;;;3.70;;
57263;SDS011;43113;53.124;6.092;2022-10-23T03:35:40;5.72;;;3.38;;
57263;SDS011;43113;53.124;6.092;2022-10-23T03:38:06;6.70;;;3.78;;
57263;SDS011;43113;53.124;6.092;2022-10-23T03:40:32;8.25;;;4.00;;
57263;SDS011;43113;53.124;6.092;2022-10-23T03:42:58;9.15;;;3.70;;
57263;SDS011;43113;53.124;6.092;2022-10-23T03:45:24;6.45;;;3.60;;
57263;SDS011;43113;53.124;6.092;2022-10-23T03:47:50;7.18;;;3.88;;
57263;SDS011;43113;53.124;6.092;2022-10-23T03:50:16;6.20;;;3.65;;
57263;SDS011;43113;53.124;6.092;2022-10-23T03:52:42;6.65;;;3.75;;
57263;SDS011;43113;53.124;6.092;2022-10-23T03:55:08;7.78;;;4.13;;
57263;SDS011;43113;53.124;6.092;2022-10-23T03:57:35;6.63;;;3.60;;
57263;SDS011;43113;53.124;6.092;2022-10-23T04:00:01;8.07;;;4.57;;
57263;SDS011;43113;53.124;6.092;2022-10-23T04:02:27;6.18;;;3.90;;
57263;SDS011;43113;53.124;6.092;2022-10-23T04:04:53;11.07;;;4.45;;
57263;SDS011;43113;53.124;6.092;2022-10-23T04:07:19;5.80;;;3.30;;
57263;SDS011;43113;53.124;6.092;2022-10-23T04:09:45;8.88;;;4.30;;
57263;SDS011;43113;53.124;6.092;2022-10-23T04:12:12;12.50;;;4.15;;
57263;SDS011;43113;53.124;6.092;2022-10-23T04:14:38;8.57;;;4.05;;
57263;SDS011;43113;53.124;6.092;2022-10-23T04:17:04;7.00;;;3.47;;
57263;SDS011;43113;53.124;6.092;2022-10-23T04:19:30;8.63;;;4.43;;
57263;SDS011;43113;53.124;6.092;2022-10-23T04:21:57;15.15;;;4.53;;
57263;SDS011;43113;53.124;6.092;2022-10-23T04:24:23;7.22;;;4.25;;
57263;SDS011;43113;53.124;6.092;2022-10-23T04:26:49;7.40;;;4.68;;
57263;SDS011;43113;53.124;6.092;2022-10-23T04:29:15;8.57;;;4.85;;
57263;SDS011;43113;53.124;6.092;2022-10-23T04:31:41;8.00;;;4.20;;
57263;SDS011;43113;53.124;6.092;2022-10-23T04:34:07;9.05;;;4.53;;
57263;SDS011;43113;53.124;6.092;2022-10-23T04:36:34;12.63;;;5.78;;
57263;SDS011;43113;53.124;6.092;2022-10-23T04:39:00;10.65;;;5.88;;
57263;SDS011;43113;53.124;6.092;2022-10-23T04:41:26;10.32;;;5.20;;
57263;SDS011;43113;53.124;6.092;2022-10-23T04:43:52;9.82;;;5.78;;
57263;SDS011;43113;53.124;6.092;2022-10-23T04:46:18;10.77;;;6.32;;
57263;SDS011;43113;53.124;6.092;2022-10-23T04:48:44;10.55;;;5.38;;
57263;SDS011;43113;53.124;6.092;2022-10-23T04:51:10;8.55;;;4.90;;
57263;SDS011;43113;53.124;6.092;2022-10-23T04:53:36;9.85;;;5.93;;
57263;SDS011;43113;53.124;6.092;2022-10-23T04:56:03;10.10;;;6.00;;
57263;SDS011;43113;53.124;6.092;2022-10-23T04:58:30;13.40;;;6.35;;
57263;SDS011;43113;53.124;6.092;2022-10-23T05:00:56;10.15;;;4.72;;
57263;SDS011;43113;53.124;6.092;2022-10-23T05:03:23;12.82;;;6.35;;
57263;SDS011;43113;53.124;6.092;2022-10-23T05:05:51;11.48;;;6.10;;
57263;SDS011;43113;53.124;6.092;2022-10-23T05:08:17;9.80;;;5.30;;
57263;SDS011;43113;53.124;6.092;2022-10-23T05:10:43;10.73;;;5.20;;
57263;SDS011;43113;53.124;6.092;2022-10-23T05:13:09;13.60;;;5.63;;
57263;SDS011;43113;53.124;6.092;2022-10-23T05:15:36;9.25;;;5.30;;
57263;SDS011;43113;53.124;6.092;2022-10-23T05:18:04;10.98;;;5.85;;
57263;SDS011;43113;53.124;6.092;2022-10-23T05:20:33;15.55;;;6.22;;
57263;SDS011;43113;53.124;6.092;2022-10-23T05:23:00;10.77;;;6.57;;
57263;SDS011;43113;53.124;6.092;2022-10-23T05:25:27;12.60;;;6.97;;
57263;SDS011;43113;53.124;6.092;2022-10-23T05:27:54;12.50;;;6.03;;
57263;SDS011;43113;53.124;6.092;2022-10-23T05:30:20;10.10;;;7.45;;
57263;SDS011;43113;53.124;6.092;2022-10-23T05:32:46;12.02;;;6.00;;
57263;SDS011;43113;53.124;6.092;2022-10-23T05:35:14;11.50;;;6.53;;
57263;SDS011;43113;53.124;6.092;2022-10-23T05:37:44;14.27;;;6.22;;
57263;SDS011;43113;53.124;6.092;2022-10-23T05:40:10;12.15;;;5.72;;
57263;SDS011;43113;53.124;6.092;2022-10-23T05:42:37;9.38;;;5.55;;
57263;SDS011;43113;53.124;6.092;2022-10-23T05:45:03;11.02;;;6.47;;
57263;SDS011;43113;53.124;6.092;2022-10-23T05:47:29;12.38;;;6.30;;
57263;SDS011;43113;53.124;6.092;2022-10-23T05:49:55;12.48;;;5.22;;
57263;SDS011;43113;53.124;6.092;2022-10-23T05:52:22;11.25;;;6.07;;
57263;SDS011;43113;53.124;6.092;2022-10-23T05:54:51;11.05;;;6.28;;
57263;SDS011;43113;53.124;6.092;2022-10-23T05:57:17;11.80;;;7.10;;
57263;SDS011;43113;53.124;6.092;2022-10-23T05:59:43;9.10;;;5.45;;
57263;SDS011;43113;53.124;6.092;2022-10-23T06:02:10;9.90;;;6.20;;
57263;SDS011;43113;53.124;6.092;2022-10-23T06:04:36;11.88;;;5.45;;
57263;SDS011;43113;53.124;6.092;2022-10-23T06:07:02;10.55;;;5.70;;
57263;SDS011;43113;53.124;6.092;2022-10-23T06:09:28;12.10;;;5.93;;
57263;SDS011;43113;53.124;6.092;2022-10-23T06:11:54;12.07;;;6.10;;
57263;SDS011;43113;53.124;6.092;2022-10-23T06:14:20;11.85;;;5.97;;
57263;SDS011;43113;53.124;6.092;2022-10-23T06:16:46;14.73;;;6.57;;
57263;SDS011;43113;53.124;6.092;2022-10-23T06:19:13;13.45;;;6.50;;
57263;SDS011;43113;53.124;6.092;2022-10-23T06:21:39;13.63;;;6.78;;
57263;SDS011;43113;53.124;6.092;2022-10-23T06:24:06;9.82;;;5.47;;
57263;SDS011;43113;53.124;6.092;2022-10-23T06:26:34;10.65;;;5.90;;
57263;SDS011;43113;53.124;6.092;2022-10-23T06:29:02;10.98;;;6.28;;
57263;SDS011;43113;53.124;6.092;2022-10-23T06:31:34;17.30;;;7.40;;
57263;SDS011;43113;53.124;6.092;2022-10-23T06:34:00;13.40;;;6.65;;
57263;SDS011;43113;53.124;6.092;2022-10-23T06:36:27;13.27;;;5.85;;
57263;SDS011;43113;53.124;6.092;2022-10-23T06:39:05;11.00;;;6.15;;
57263;SDS011;43113;53.124;6.092;2022-10-23T06:41:40;11.40;;;6.18;;
57263;SDS011;43113;53.124;6.092;2022-10-23T06:44:08;14.23;;;6.82;;
57263;SDS011;43113;53.124;6.092;2022-10-23T06:46:35;15.18;;;6.32;;
57263;SDS011;43113;53.124;6.092;2022-10-23T06:49:24;10.95;;;6.13;;
57263;SDS011;43113;53.124;6.092;2022-10-23T06:51:50;10.85;;;6.25;;
57263;SDS011;43113;53.124;6.092;2022-10-23T06:54:16;19.33;;;7.28;;
57263;SDS011;43113;53.124;6.092;2022-10-23T06:56:42;15.88;;;6.28;;
57263;SDS011;43113;53.124;6.092;2022-10-23T06:59:08;13.60;;;6.10;;
57263;SDS011;43113;53.124;6.092;2022-10-23T07:01:35;14.50;;;6.32;;
57263;SDS011;43113;53.124;6.092;2022-10-23T07:04:01;15.10;;;6.18;;
57263;SDS011;43113;53.124;6.092;2022-10-23T07:06:27;12.45;;;6.65;;
57263;SDS011;43113;53.124;6.092;2022-10-23T07:08:53;11.88;;;6.18;;
57263;SDS011;43113;53.124;6.092;2022-10-23T07:11:19;13.07;;;6.47;;
57263;SDS011;43113;53.124;6.092;2022-10-23T07:13:45;12.23;;;6.78;;
57263;SDS011;43113;53.124;6.092;2022-10-23T07:16:13;13.60;;;6.03;;
57263;SDS011;43113;53.124;6.092;2022-10-23T07:18:39;15.07;;;6.70;;
57263;SDS011;43113;53.124;6.092;2022-10-23T07:21:05;11.88;;;5.55;;
57263;SDS011;43113;53.124;6.092;2022-10-23T07:23:31;10.75;;;6.18;;
57263;SDS011;43113;53.124;6.092;2022-10-23T07:28:33;12.67;;;6.23;;
57263;SDS011;43113;53.124;6.092;2022-10-23T07:30:59;9.70;;;5.95;;
57263;SDS011;43113;53.124;6.092;2022-10-23T07:33:25;14.48;;;6.30;;
57263;SDS011;43113;53.124;6.092;2022-10-23T07:35:51;9.23;;;6.00;;
57263;SDS011;43113;53.124;6.092;2022-10-23T07:38:17;12.48;;;6.90;;
57263;SDS011;43113;53.124;6.092;2022-10-23T07:40:43;10.20;;;5.63;;
57263;SDS011;43113;53.124;6.092;2022-10-23T07:43:10;11.88;;;5.63;;
57263;SDS011;43113;53.124;6.092;2022-10-23T07:45:36;10.02;;;6.50;;
57263;SDS011;43113;53.124;6.092;2022-10-23T07:48:02;13.10;;;5.53;;
57263;SDS011;43113;53.124;6.092;2022-10-23T07:50:27;10.70;;;6.55;;
57263;SDS011;43113;53.124;6.092;2022-10-23T07:52:53;9.80;;;5.32;;
57263;SDS011;43113;53.124;6.092;2022-10-23T07:55:19;13.15;;;6.20;;
57263;SDS011;43113;53.124;6.092;2022-10-23T07:57:45;10.48;;;5.13;;
57263;SDS011;43113;53.124;6.092;2022-10-23T08:00:10;10.93;;;6.15;;
57263;SDS011;43113;53.124;6.092;2022-10-23T08:02:36;11.75;;;5.30;;
57263;SDS011;43113;53.124;6.092;2022-10-23T08:05:02;10.07;;;5.25;;
57263;SDS011;43113;53.124;6.092;2022-10-23T08:07:28;12.40;;;5.80;;
57263;SDS011;43113;53.124;6.092;2022-10-23T08:09:54;11.23;;;6.20;;
57263;SDS011;43113;53.124;6.092;2022-10-23T08:12:20;9.43;;;5.43;;
57263;SDS011;43113;53.124;6.092;2022-10-23T08:14:46;10.00;;;5.22;;
57263;SDS011;43113;53.124;6.092;2022-10-23T08:17:11;7.65;;;5.25;;
57263;SDS011;43113;53.124;6.092;2022-10-23T08:19:37;17.63;;;5.45;;
57263;SDS011;43113;53.124;6.092;2022-10-23T08:22:03;8.60;;;5.35;;
57263;SDS011;43113;53.124;6.092;2022-10-23T08:24:29;11.00;;;5.68;;
57263;SDS011;43113;53.124;6.092;2022-10-23T08:26:55;10.15;;;5.35;;
57263;SDS011;43113;53.124;6.092;2022-10-23T08:29:21;9.48;;;5.18;;
57263;SDS011;43113;53.124;6.092;2022-10-23T08:31:47;9.57;;;5.32;;
57263;SDS011;43113;53.124;6.092;2022-10-23T08:34:13;12.75;;;6.80;;
57263;SDS011;43113;53.124;6.092;2022-10-23T08:36:39;12.60;;;5.32;;
57263;SDS011;43113;53.124;6.092;2022-10-23T08:39:06;9.68;;;6.10;;
57263;SDS011;43113;53.124;6.092;2022-10-23T08:41:36;8.70;;;5.15;;
57263;SDS011;43113;53.124;6.092;2022-10-23T08:46:30;12.93;;;5.35;;
57263;SDS011;43113;53.124;6.092;2022-10-23T08:49:19;11.13;;;4.75;;
57263;SDS011;43113;53.124;6.092;2022-10-23T08:52:15;10.63;;;5.03;;
57263;SDS011;43113;53.124;6.092;2022-10-23T08:54:56;9.25;;;4.93;;
57263;SDS011;43113;53.124;6.092;2022-10-23T08:57:32;8.02;;;5.07;;
57263;SDS011;43113;53.124;6.092;2022-10-23T09:00:04;11.82;;;4.75;;
57263;SDS011;43113;53.124;6.092;2022-10-23T09:02:41;10.05;;;5.07;;
57263;SDS011;43113;53.124;6.092;2022-10-23T09:05:11;6.68;;;4.18;;
57263;SDS011;43113;53.124;6.092;2022-10-23T09:13:39;9.40;;;4.78;;
57263;SDS011;43113;53.124;6.092;2022-10-23T09:16:03;10.00;;;4.63;;
57263;SDS011;43113;53.124;6.092;2022-10-23T09:18:35;9.13;;;4.85;;
57263;SDS011;43113;53.124;6.092;2022-10-23T09:21:02;9.65;;;4.30;;
57263;SDS011;43113;53.124;6.092;2022-10-23T09:23:33;9.07;;;4.95;;
57263;SDS011;43113;53.124;6.092;2022-10-23T09:25:59;8.77;;;4.38;;
57263;SDS011;43113;53.124;6.092;2022-10-23T09:28:29;8.15;;;5.28;;
57263;SDS011;43113;53.124;6.092;2022-10-23T09:31:09;11.30;;;4.15;;
57263;SDS011;43113;53.124;6.092;2022-10-23T09:33:38;7.38;;;4.10;;
57263;SDS011;43113;53.124;6.092;2022-10-23T09:38:44;7.43;;;4.05;;
57263;SDS011;43113;53.124;6.092;2022-10-23T09:43:58;6.95;;;3.92;;
57263;SDS011;43113;53.124;6.092;2022-10-23T09:46:24;6.88;;;3.72;;
57263;SDS011;43113;53.124;6.092;2022-10-23T09:49:01;7.38;;;3.33;;
57263;SDS011;43113;53.124;6.092;2022-10-23T09:51:27;8.88;;;3.72;;
57263;SDS011;43113;53.124;6.092;2022-10-23T09:53:56;11.40;;;3.47;;
57263;SDS011;43113;53.124;6.092;2022-10-23T09:58:56;5.65;;;3.25;;
57263;SDS011;43113;53.124;6.092;2022-10-23T10:01:25;6.43;;;3.45;;
57263;SDS011;43113;53.124;6.092;2022-10-23T10:03:52;9.65;;;3.38;;
57263;SDS011;43113;53.124;6.092;2022-10-23T10:06:28;5.18;;;2.65;;
57263;SDS011;43113;53.124;6.092;2022-10-23T10:08:56;8.30;;;3.30;;
57263;SDS011;43113;53.124;6.092;2022-10-23T10:14:21;6.90;;;2.85;;
57263;SDS011;43113;53.124;6.092;2022-10-23T10:30:23;5.57;;;2.47;;
57263;SDS011;43113;53.124;6.092;2022-10-23T10:33:07;25.75;;;3.15;;
57263;SDS011;43113;53.124;6.092;2022-10-23T10:46:01;5.20;;;2.65;;
57263;SDS011;43113;53.124;6.092;2022-10-23T10:48:40;5.68;;;2.45;;
57263;SDS011;43113;53.124;6.092;2022-10-23T10:51:07;3.58;;;2.03;;
57263;SDS011;43113;53.124;6.092;2022-10-23T10:56:11;8.20;;;2.00;;
57263;SDS011;43113;53.124;6.092;2022-10-23T11:01:19;3.03;;;2.03;;
57263;SDS011;43113;53.124;6.092;2022-10-23T11:03:56;3.95;;;2.05;;
57263;SDS011;43113;53.124;6.092;2022-10-23T11:06:25;7.95;;;1.95;;
57263;SDS011;43113;53.124;6.092;2022-10-23T11:08:54;5.57;;;2.20;;
57263;SDS011;43113;53.124;6.092;2022-10-23T11:11:23;3.90;;;1.77;;
57263;SDS011;43113;53.124;6.092;2022-10-23T11:13:50;4.07;;;1.83;;
57263;SDS011;43113;53.124;6.092;2022-10-23T11:18:45;4.70;;;1.95;;
57263;SDS011;43113;53.124;6.092;2022-10-23T11:21:33;7.07;;;2.80;;
57263;SDS011;43113;53.124;6.092;2022-10-23T11:24:04;5.38;;;2.78;;
57263;SDS011;43113;53.124;6.092;2022-10-23T11:29:09;7.43;;;2.50;;
57263;SDS011;43113;53.124;6.092;2022-10-23T11:36:43;9.45;;;2.50;;
57263;SDS011;43113;53.124;6.092;2022-10-23T11:39:22;5.20;;;2.35;;
57263;SDS011;43113;53.124;6.092;2022-10-23T11:41:56;4.55;;;2.47;;
57263;SDS011;43113;53.124;6.092;2022-10-23T11:47:24;3.95;;;2.10;;
57263;SDS011;43113;53.124;6.092;2022-10-23T11:49:50;4.38;;;1.77;;
57263;SDS011;43113;53.124;6.092;2022-10-23T11:52:21;3.72;;;1.80;;
57263;SDS011;43113;53.124;6.092;2022-10-23T11:54:47;4.28;;;1.73;;
57263;SDS011;43113;53.124;6.092;2022-10-23T11:57:13;5.03;;;2.10;;
57263;SDS011;43113;53.124;6.092;2022-10-23T12:04:52;3.17;;;1.80;;
57263;SDS011;43113;53.124;6.092;2022-10-23T12:07:22;4.78;;;2.28;;
57263;SDS011;43113;53.124;6.092;2022-10-23T12:09:59;3.88;;;1.60;;
57263;SDS011;43113;53.124;6.092;2022-10-23T12:12:28;5.57;;;2.47;;
57263;SDS011;43113;53.124;6.092;2022-10-23T12:15:05;3.13;;;1.90;;
57263;SDS011;43113;53.124;6.092;2022-10-23T12:17:33;4.95;;;1.83;;
57263;SDS011;43113;53.124;6.092;2022-10-23T12:22:27;7.22;;;2.13;;
57263;SDS011;43113;53.124;6.092;2022-10-23T12:30:31;5.47;;;1.75;;
57263;SDS011;43113;53.124;6.092;2022-10-23T12:33:04;5.85;;;2.20;;
57263;SDS011;43113;53.124;6.092;2022-10-23T12:35:51;5.53;;;1.90;;
57263;SDS011;43113;53.124;6.092;2022-10-23T12:38:22;4.47;;;2.00;;
57263;SDS011;43113;53.124;6.092;2022-10-23T12:40:53;2.80;;;1.67;;
57263;SDS011;43113;53.124;6.092;2022-10-23T12:43:27;3.17;;;1.77;;
57263;SDS011;43113;53.124;6.092;2022-10-23T12:45:54;4.32;;;1.70;;
57263;SDS011;43113;53.124;6.092;2022-10-23T12:48:21;3.08;;;1.80;;
57263;SDS011;43113;53.124;6.092;2022-10-23T12:50:52;5.45;;;2.28;;
57263;SDS011;43113;53.124;6.092;2022-10-23T12:53:19;3.78;;;2.40;;
57263;SDS011;43113;53.124;6.092;2022-10-23T12:58:22;4.78;;;1.88;;
57263;SDS011;43113;53.124;6.092;2022-10-23T13:00:49;5.38;;;1.70;;
57263;SDS011;43113;53.124;6.092;2022-10-23T13:03:15;5.47;;;1.80;;
57263;SDS011;43113;53.124;6.092;2022-10-23T13:05:41;3.60;;;1.88;;
57263;SDS011;43113;53.124;6.092;2022-10-23T13:08:07;3.63;;;2.00;;
57263;SDS011;43113;53.124;6.092;2022-10-23T13:10:34;5.60;;;2.00;;
57263;SDS011;43113;53.124;6.092;2022-10-23T13:13:04;3.45;;;1.88;;
57263;SDS011;43113;53.124;6.092;2022-10-23T13:15:38;8.00;;;2.00;;
57263;SDS011;43113;53.124;6.092;2022-10-23T13:18:04;5.45;;;1.65;;
57263;SDS011;43113;53.124;6.092;2022-10-23T13:20:37;4.38;;;2.10;;
57263;SDS011;43113;53.124;6.092;2022-10-23T13:25:54;8.15;;;2.72;;
57263;SDS011;43113;53.124;6.092;2022-10-23T13:28:24;6.28;;;2.25;;
57263;SDS011;43113;53.124;6.092;2022-10-23T13:30:58;2.20;;;1.60;;
57263;SDS011;43113;53.124;6.092;2022-10-23T13:33:25;3.20;;;1.90;;
57263;SDS011;43113;53.124;6.092;2022-10-23T13:36:18;3.55;;;1.75;;
57263;SDS011;43113;53.124;6.092;2022-10-23T13:38:45;4.32;;;1.83;;
57263;SDS011;43113;53.124;6.092;2022-10-23T13:41:12;3.72;;;2.10;;
57263;SDS011;43113;53.124;6.092;2022-10-23T13:43:39;3.72;;;2.40;;
57263;SDS011;43113;53.124;6.092;2022-10-23T13:46:10;3.30;;;1.70;;
57263;SDS011;43113;53.124;6.092;2022-10-23T13:48:38;2.53;;;1.48;;
57263;SDS011;43113;53.124;6.092;2022-10-23T13:51:11;8.77;;;2.28;;
57263;SDS011;43113;53.124;6.092;2022-10-23T13:53:39;4.68;;;1.63;;
57263;SDS011;43113;53.124;6.092;2022-10-23T13:56:05;7.63;;;2.13;;
57263;SDS011;43113;53.124;6.092;2022-10-23T13:58:32;4.75;;;1.80;;
57263;SDS011;43113;53.124;6.092;2022-10-23T14:00:58;7.03;;;2.33;;
57263;SDS011;43113;53.124;6.092;2022-10-23T14:03:25;4.20;;;2.55;;
57263;SDS011;43113;53.124;6.092;2022-10-23T14:05:51;6.88;;;2.08;;
57263;SDS011;43113;53.124;6.092;2022-10-23T14:08:17;6.15;;;2.72;;
57263;SDS011;43113;53.124;6.092;2022-10-23T14:10:43;5.82;;;2.22;;
57263;SDS011;43113;53.124;6.092;2022-10-23T14:13:09;5.10;;;2.10;;
57263;SDS011;43113;53.124;6.092;2022-10-23T14:15:35;4.38;;;1.98;;
57263;SDS011;43113;53.124;6.092;2022-10-23T14:18:01;4.38;;;1.92;;
57263;SDS011;43113;53.124;6.092;2022-10-23T14:20:28;4.07;;;1.90;;
57263;SDS011;43113;53.124;6.092;2022-10-23T14:22:54;4.47;;;1.73;;
57263;SDS011;43113;53.124;6.092;2022-10-23T14:25:20;5.82;;;2.05;;
57263;SDS011;43113;53.124;6.092;2022-10-23T14:27:46;3.67;;;2.00;;
57263;SDS011;43113;53.124;6.092;2022-10-23T14:30:12;7.57;;;2.10;;
57263;SDS011;43113;53.124;6.092;2022-10-23T14:32:39;3.60;;;1.77;;
57263;SDS011;43113;53.124;6.092;2022-10-23T14:35:05;23.60;;;2.08;;
57263;SDS011;43113;53.124;6.092;2022-10-23T14:37:31;6.78;;;2.17;;
57263;SDS011;43113;53.124;6.092;2022-10-23T14:39:58;3.80;;;1.70;;
57263;SDS011;43113;53.124;6.092;2022-10-23T14:42:24;3.55;;;2.00;;
57263;SDS011;43113;53.124;6.092;2022-10-23T14:44:51;4.32;;;1.75;;
57263;SDS011;43113;53.124;6.092;2022-10-23T14:47:17;4.18;;;1.63;;
57263;SDS011;43113;53.124;6.092;2022-10-23T14:49:45;3.83;;;1.80;;
57263;SDS011;43113;53.124;6.092;2022-10-23T14:52:13;6.25;;;2.60;;
57263;SDS011;43113;53.124;6.092;2022-10-23T14:54:39;4.43;;;2.30;;
57263;SDS011;43113;53.124;6.092;2022-10-23T14:57:05;4.18;;;1.45;;
57263;SDS011;43113;53.124;6.092;2022-10-23T14:59:31;4.32;;;1.77;;
57263;SDS011;43113;53.124;6.092;2022-10-23T15:01:57;5.80;;;2.42;;
57263;SDS011;43113;53.124;6.092;2022-10-23T15:04:23;5.20;;;2.00;;
57263;SDS011;43113;53.124;6.092;2022-10-23T15:06:50;5.70;;;2.00;;
57263;SDS011;43113;53.124;6.092;2022-10-23T15:09:16;2.92;;;1.70;;
57263;SDS011;43113;53.124;6.092;2022-10-23T15:11:44;2.97;;;1.80;;
57263;SDS011;43113;53.124;6.092;2022-10-23T15:14:10;4.55;;;2.10;;
57263;SDS011;43113;53.124;6.092;2022-10-23T15:16:36;4.45;;;1.88;;
57263;SDS011;43113;53.124;6.092;2022-10-23T15:19:06;4.47;;;1.95;;
57263;SDS011;43113;53.124;6.092;2022-10-23T15:21:32;4.30;;;1.65;;
57263;SDS011;43113;53.124;6.092;2022-10-23T15:23:59;3.80;;;2.00;;
57263;SDS011;43113;53.124;6.092;2022-10-23T15:26:25;3.53;;;1.80;;
57263;SDS011;43113;53.124;6.092;2022-10-23T15:28:52;3.83;;;1.50;;
57263;SDS011;43113;53.124;6.092;2022-10-23T15:33:54;7.10;;;2.35;;
57263;SDS011;43113;53.124;6.092;2022-10-23T15:36:20;4.13;;;1.90;;
57263;SDS011;43113;53.124;6.092;2022-10-23T15:38:47;4.70;;;1.70;;
57263;SDS011;43113;53.124;6.092;2022-10-23T15:41:14;2.55;;;1.80;;
57263;SDS011;43113;53.124;6.092;2022-10-23T15:43:40;3.05;;;1.88;;
57263;SDS011;43113;53.124;6.092;2022-10-23T15:46:06;2.42;;;1.52;;
57263;SDS011;43113;53.124;6.092;2022-10-23T15:48:32;4.43;;;2.00;;
57263;SDS011;43113;53.124;6.092;2022-10-23T15:50:58;4.40;;;2.10;;
57263;SDS011;43113;53.124;6.092;2022-10-23T15:53:25;5.43;;;2.45;;
57263;SDS011;43113;53.124;6.092;2022-10-23T15:55:51;3.75;;;1.95;;
57263;SDS011;43113;53.124;6.092;2022-10-23T15:58:17;5.43;;;1.95;;
57263;SDS011;43113;53.124;6.092;2022-10-23T16:00:43;4.95;;;1.80;;
57263;SDS011;43113;53.124;6.092;2022-10-23T16:03:09;5.82;;;1.98;;
57263;SDS011;43113;53.124;6.092;2022-10-23T16:05:35;3.97;;;1.88;;
57263;SDS011;43113;53.124;6.092;2022-10-23T16:08:01;5.75;;;1.77;;
57263;SDS011;43113;53.124;6.092;2022-10-23T16:10:26;4.80;;;1.60;;
57263;SDS011;43113;53.124;6.092;2022-10-23T16:12:52;5.03;;;2.03;;
57263;SDS011;43113;53.124;6.092;2022-10-23T16:15:19;5.22;;;1.80;;
57263;SDS011;43113;53.124;6.092;2022-10-23T16:17:44;4.80;;;2.28;;
57263;SDS011;43113;53.124;6.092;2022-10-23T16:20:10;8.55;;;2.83;;
57263;SDS011;43113;53.124;6.092;2022-10-23T16:22:36;6.05;;;2.78;;
57263;SDS011;43113;53.124;6.092;2022-10-23T16:25:01;6.07;;;2.78;;
57263;SDS011;43113;53.124;6.092;2022-10-23T16:27:27;3.25;;;1.83;;
57263;SDS011;43113;53.124;6.092;2022-10-23T16:29:53;4.38;;;2.35;;
57263;SDS011;43113;53.124;6.092;2022-10-23T16:32:18;4.22;;;2.47;;
57263;SDS011;43113;53.124;6.092;2022-10-23T16:34:44;4.70;;;2.20;;
57263;SDS011;43113;53.124;6.092;2022-10-23T16:37:10;4.65;;;2.38;;
57263;SDS011;43113;53.124;6.092;2022-10-23T16:39:36;4.90;;;2.08;;
57263;SDS011;43113;53.124;6.092;2022-10-23T16:42:02;4.72;;;2.13;;